Stupino, Russia
Current Conditions -  °F | °C
As of 2:30 PM on Friday 31 Oct 2014 (Local Time) from UUDD Reporting Station
Broken Clouds Broken Clouds  
Wind Chill: 39°   Ceiling: 10000
Heat Index: 43°   Visibility: 4mi
Dew Point: 32°   Wind: 7mph
Humidity: 66%   Direction: 330°NNW
Pressure: 30.06"   Gusts: NA
Location:  54.9°N, 38.07°E
Report Text: UUDD 311130Z 33003MPS 7000 BKN100 06/00 Q1018 32010095 82010095NOSIG
Loading
Personal Weather Stations






























Interactive Weather Map
Tropical Storm Tracking
New forecast layout! Learn more

10-Day Weather Forecast

Advertisements
Track Severe Weather on mobile